Terminal Aerodrome Forecast
Issued by NWS

Home | Current Version | Previous Version | Graphics & Text | Print | Product List | Glossary Off
Versions: 1 2 3 4 5 6 7 8 9 10 11 12 13 14 15 16 17 18 19 20 21 22 23 24 25 26 27 28 29 30 31 32 33 34 35 36 37 38 39 40 41 42 43 44

000
FTUS43 KLOT 291456 AAB
TAFGYY
TAF AMD
KGYY 291456Z 2915/3012 04020G30KT 6SM -SHRA BKN017 OVC025
      TEMPO 2915/2919 5SM SHRA OVC015
     FM300100 03015G25KT 6SM BR VCSH BKN010
     FM300500 02012G18KT 4SM BR VCSH BKN007=

USA.gov is the U.S. government's official web portal to all federal, state and local government web resources and services.